AirNav  
 
 617 users online  

KSYV Sylvester Airport
Sylvester, Georgia, USA

GOING TO SYLVESTER?


FAA INFORMATION EFFECTIVE 25 MARCH 2021

Location

FAA Identifier: SYV
Lat/Long: 31-33-25.7570N 083-53-38.5310W
31-33.429283N 083-53.642183W
31.5571547,-83.8940364
(estimated)
Elevation: 403 ft. / 122.8 m (surveyed)
Variation: 02W (1985)
From city: 3 miles NW of SYLVESTER, GA
Time zone: UTC -4 (UTC -5 during Standard Time)
Zip code: 31791

Airport Operations

Airport use: Open to the public
Activation date: 01/1966
Control tower: no
ARTCC: JACKSONVILLE CENTER
FSS: MACON FLIGHT SERVICE STATION
NOTAMs facility: MCN (NOTAM-D service available)
Attendance: UNATNDD
Wind indicator: lighted
Segmented circle: yes
Lights: DUSK-DAWN. ACTVT MIRL RY 01/19 AND PAPI RYS 01 & 19 - CTAF.
Beacon: white-green (lighted land airport)
Operates sunset to sunrise.

Airport Communications

CTAF/UNICOM: 122.8
WX ASOS at ABY (15 nm W): PHONE 229-434-7494
  • APCH/DEP SVC PRVDD BY JACKSONVILLE ARTCC ON FREQS 125.75/226.8 (ALBANY RCAG).

Nearby radio navigation aids

VOR radial/distance  VOR name  Freq  Var
PZDr108/21.2PECAN VOR/DME116.1002W
IFMr291/(22.1)TIFT MYERS VOR112.5001W

 
NDB name  Hdg/Dist  Freq  Var  ID
CONEY190/26.540006WOHY --- .... -.--
FITZGERALD269/31.036205WSUR ... ..- .-.
PATON360/36.124505WGTP --. - .--.
LINDBERGH168/38.624204WLKG .-.. -.- --.

Airport Services

Parking: tiedowns
Airframe service: NONE
Powerplant service: NONE
Bottled oxygen: NONE
Bulk oxygen: NONE

Runway Information

Runway 1/19

Dimensions: 4525 x 75 ft. / 1379 x 23 m
Surface: asphalt, in good condition
Weight bearing capacity: 
Single wheel: 26.0
Runway edge lights: medium intensity
RUNWAY 1  RUNWAY 19
Latitude: 31-33.061272N31-33.797287N
Longitude: 083-53.713693W083-53.570663W
Elevation: 385.8 ft.387.2 ft.
Traffic pattern: leftleft
Markings: nonprecision, in good conditionnonprecision, in good condition
Visual slope indicator: 2-light PAPI on left (3.00 degrees glide path)2-light PAPI on left (3.00 degrees glide path)
Touchdown point: yes, no lightsyes, no lights
Obstructions: none38 ft. trees, 1492 ft. from runway, 312 ft. left of centerline, 34:1 slope to clear

Airport Ownership and Management from official FAA records

Ownership: Publicly-owned
Owner: CITY OF SYLVESTER
102 SOUTH MAIN STREET
SYLVESTER, GA 31791
Phone 229-776-8505
Manager: AUTRON HAYES
101 NORTH MAIN STREET
SYLVESTER, GA 31791
Phone 229-776-8505

Airport Operational Statistics

Aircraft based on the field: 4
Single engine airplanes: 3
Multi engine airplanes: 1
    
Aircraft operations: avg 40/week *
52% local general aviation
48% transient general aviation
* for 12-month period ending 01 December 2020

Additional Remarks

DEER ON AND INVOF ARPT.
FOR CD CTC JACKSONVILLE ARTCC AT 904-845-1592.

Instrument Procedures

There are no published instrument procedures at KSYV.

Some nearby airports with instrument procedures:

KABY - Southwest Georgia Regional Airport (15 nm W)
75J - Turner County Airport (15 nm NE)
KTMA - Henry Tift Myers Airport (22 nm E)
KCKF - Crisp County-Cordele Airport (27 nm N)
KCXU - Camilla-Mitchell County Airport (27 nm SW)
 
Loc | Ops | Rwys | IFR | FBO | Links
Com | Nav | Svcs | Stats | Notes
Area around KSYV (Sylvester Airport)
 
Road maps at: MapQuest Bing Google
 
Aerial photo
WARNING: Photo may not be current or correct
Aerial photo of KSYV (Sylvester Airport)
Do you have a better or more recent aerial photo of Sylvester Airport that you would like to share? If so, please send us your photo.

 
Sectional chart

 
Airport distance calculator
Flying to Sylvester Airport? Find the distance to fly.

From to KSYV

Sunrise and sunset
Times for 10-Apr-2021
 Local
(UTC-4)
 Zulu
(UTC)
Morning civil twilight06:4910:49
Sunrise07:1411:14
Sunset20:0024:00
Evening civil twilight20:2500:25

Current date and time
Zulu (UTC)  10-Apr-2021 11:55:35
Local (UTC-4)  10-Apr-2021 07:55:35
 
METAR
KABY 
16nm W 
101053Z AUTO 08005KT 6SM BR CLR 16/14 A2987 RMK AO2 SLP112 T01560144
KTMA 
22nm E 
101135Z AUTO 15005KT 10SM CLR 16/16 A2988 RMK AO2 T01610160
KCKF 
27nm N 
101135Z AUTO 13008KT 10SM SCT046 SCT055 17/15 A2987 RMK AO2 LTG DSNT W T01650154
KCXU 
27nm SW 
101135Z AUTO 12008KT 10SM CLR 17/15 A2984 RMK AO1 T01720152
KMGR 
29nm S 
101130Z AUTO 13004KT 10SM CLR 16/15 A2987 RMK AO2
TAF
KABY 
16nm W 
100523Z 1006/1106 16005KT P6SM BKN040 TEMPO 1007/1011 3SM BR BKN007 FM101400 18011G19KT P6SM SHRA BKN022 TEMPO 1015/1017 VRB20G30KT 3SM +TSRA BR BKN025CB FM102100 18010G20KT P6SM BKN040 FM110000 24005KT P6SM BKN050
NOTAMs
Click for the latest NOTAMs
NOTAMs are issued by the DoD/FAA and will open in a separate window not controlled by AirNav.

 

 
 

Would you like to see your business listed on this page?

 If your business provides an interesting product or service to pilots, flight crews, aircraft, or users of the Sylvester Airport, you should consider listing it here.  To start the listing process, click on the button below
 
Add a business
 

Other Pages about Sylvester Airport

Update a link
 
Copyright © AirNav, LLC. All rights reserved. Privacy Policy  Contact